Time;durP1;ratioP1;P1;durP2;ratioP2;P2;SDS_P1;SDS_P2;PMS_P1;PMS_P2;Temp;Humidity;BMP_temperature;BMP_pressure;BME280_temperature;BME280_humidity;BME280_pressure;Samples;Min_cycle;Max_cycle;Signal;HPM_P1;HPM_P2
2022/11/20 00:00:04;;;;;;;;;;;;;;;;;;5030034;28;19975;-54
2022/11/20 00:02:30;;;;;;;;;;;;;;;;;;5029324;28;19988;-56
2022/11/20 00:04:57;;;;;;;;;;;;;;;;;;5039664;28;20328;-54
2022/11/20 00:07:24;;;;;;;;;;;;;;;;;;5029446;28;19980;-52
2022/11/20 00:09:50;;;;;;;;;;;;;;;;;;5033352;28;19925;-51
2022/11/20 00:12:17;;;;;;;;;;;;;;;;;;5033156;28;19929;-56
2022/11/20 00:14:43;;;;;;;;;;;;;;;;;;5033741;28;19925;-52
2022/11/20 00:17:11;;;;;;;;;;;;;;;;;;5033803;28;19929;-55
2022/11/20 00:19:38;;;;;;;;;;;;;;;;;;5033944;28;20011;-54
2022/11/20 00:22:04;;;;;;;;;;;;;;;;;;5034006;28;19991;-54
2022/11/20 00:24:31;;;;;;;;;;;;;;;;;;5033499;28;19926;-51
2022/11/20 00:26:57;;;;;;;;;;;;;;;;;;5033432;28;19932;-55
2022/11/20 00:29:24;;;;;;;;;;;;;;;;;;5032789;28;19925;-56
2022/11/20 00:31:50;;;;;;;;;;;;;;;;;;5033863;28;19925;-53
2022/11/20 00:34:18;;;;;;;;;;;;;;;;;;5033616;28;19955;-50
2022/11/20 00:36:45;;;;;;;;;;;;;;;;;;5033409;28;20623;-54
2022/11/20 00:39:11;;;;;;;;;;;;;;;;;;5032579;28;19925;-55
2022/11/20 00:41:38;;;;;;;;;;;;;;;;;;5033616;28;19925;-53
2022/11/20 00:44:05;;;;;;;;;;;;;;;;;;5033606;28;20341;-54
2022/11/20 00:46:31;;;;;;;;;;;;;;;;;;5032902;28;19925;-54
2022/11/20 00:48:58;;;;;;;;;;;;;;;;;;5032980;28;19925;-51
2022/11/20 00:51:27;;;;;;;;;;;;;;;;;;5033432;28;19971;-53
2022/11/20 00:53:55;;;;;;;;;;;;;;;;;;5033149;28;19971;-53
2022/11/20 00:56:22;;;;;;;;;;;;;;;;;;5033361;28;20399;-52
2022/11/20 00:58:49;;;;;;;;;;;;;;;;;;5033004;28;19956;-54
2022/11/20 01:01:17;;;;;;;;;;;;;;;;;;5033381;28;19925;-53
2022/11/20 01:03:44;;;;;;;;;;;;;;;;;;5026600;28;20538;-51
2022/11/20 01:06:12;;;;;;;;;;;;;;;;;;5013428;28;19926;-55
2022/11/20 01:08:40;;;;;;;;;;;;;;;;;;5018948;28;19925;-55
2022/11/20 01:11:07;;;;;;;;;;;;;;;;;;5032965;28;20362;-54
2022/11/20 01:13:40;;;;;;;;;;;;;;;;;;5032916;28;19980;-57
2022/11/20 01:16:08;;;;;;;;;;;;;;;;;;5033081;28;19987;-53
2022/11/20 01:18:35;;;;;;;;;;;;;;;;;;5032603;28;19971;-53
2022/11/20 01:21:03;;;;;;;;;;;;;;;;;;5032280;28;20402;-54
2022/11/20 01:23:31;;;;;;;;;;;;;;;;;;5032683;28;20020;-53
2022/11/20 01:26:00;;;;;;;;;;;;;;;;;;5032800;28;19926;-55
2022/11/20 01:28:26;;;;;;;;;;;;;;;;;;5032259;28;19959;-63
2022/11/20 01:30:53;;;;;;;;;;;;;;;;;;5032242;28;19933;-62
2022/11/20 01:33:19;;;;;;;;;;;;;;;;;;5031232;28;20422;-55
2022/11/20 01:35:46;;;;;;;;;;;;;;;;;;5032616;28;19955;-55
2022/11/20 01:38:12;;;;;;;;;;;;;;;;;;5032078;28;20653;-54
2022/11/20 01:40:39;;;;;;;;;;;;;;;;;;5032346;28;19980;-51
2022/11/20 01:43:21;;;;;;;;;;;;;;;;;;5032488;28;19925;-51
2022/11/20 01:46:12;;;;;;;;;;;;;;;;;;5032174;28;19929;-50
2022/11/20 01:48:41;;;;;;;;;;;;;;;;;;5031740;28;19937;-53
2022/11/20 01:51:12;;;;;;;;;;;;;;;;;;5031658;28;19925;-54
2022/11/20 01:53:38;;;;;;;;;;;;;;;;;;5032118;28;20382;-51
2022/11/20 01:56:08;;;;;;;;;;;;;;;;;;5034099;28;19932;-54
2022/11/20 01:58:39;;;;;;;;;;;;;;;;;;5033840;28;20428;-51
2022/11/20 02:01:05;;;;;;;;;;;;;;;;;;5033810;28;19929;-54
2022/11/20 02:03:32;;;;;;;;;;;;;;;;;;5028793;28;19925;-53
2022/11/20 02:06:03;;;;;;;;;;;;;;;;;;5014251;28;19925;-52
2022/11/20 02:08:30;;;;;;;;;;;;;;;;;;5013828;28;19925;-52
2022/11/20 02:10:56;;;;;;;;;;;;;;;;;;5014118;28;19987;-50
2022/11/20 02:16:11;;;;;;;;;;;;;;;;;;5033556;28;19939;-54
2022/11/20 02:18:37;;;;;;;;;;;;;;;;;;5033310;28;20516;-56
2022/11/20 02:21:07;;;;;;;;;;;;;;;;;;5033638;28;20080;-56
2022/11/20 02:23:37;;;;;;;;;;;;;;;;;;5033131;28;19979;-56
2022/11/20 02:26:06;;;;;;;;;;;;;;;;;;5033656;28;19929;-57
2022/11/20 02:28:33;;;;;;;;;;;;;;;;;;5033293;28;20345;-55
2022/11/20 02:30:59;;;;;;;;;;;;;;;;;;5033505;28;20383;-55
2022/11/20 02:33:26;;;;;;;;;;;;;;;;;;5032126;28;20036;-53
2022/11/20 02:35:52;;;;;;;;;;;;;;;;;;5033412;28;20440;-55
2022/11/20 02:38:19;;;;;;;;;;;;;;;;;;5033103;28;19925;-54
2022/11/20 02:40:45;;;;;;;;;;;;;;;;;;5033487;28;19933;-54
2022/11/20 02:43:13;;;;;;;;;;;;;;;;;;5032893;28;20360;-54
2022/11/20 02:45:40;;;;;;;;;;;;;;;;;;5032983;28;19972;-56
2022/11/20 02:48:10;;;;;;;;;;;;;;;;;;5032636;28;19932;-57
2022/11/20 02:50:37;;;;;;;;;;;;;;;;;;5011685;28;19980;-57
2022/11/20 02:53:04;;;;;;;;;;;;;;;;;;5032781;28;19994;-53
2022/11/20 02:55:31;;;;;;;;;;;;;;;;;;5032972;28;19929;-56
2022/11/20 02:57:57;;;;;;;;;;;;;;;;;;5033160;28;20432;-56
2022/11/20 03:00:25;;;;;;;;;;;;;;;;;;5032145;28;19933;-56
2022/11/20 03:02:52;;;;;;;;;;;;;;;;;;5032530;28;19925;-56
2022/11/20 03:05:18;;;;;;;;;;;;;;;;;;5013151;28;19925;-56
2022/11/20 03:07:45;;;;;;;;;;;;;;;;;;5012594;28;19988;-56
2022/11/20 03:10:11;;;;;;;;;;;;;;;;;;5013011;28;19926;-56
2022/11/20 03:12:38;;;;;;;;;;;;;;;;;;5012991;28;19990;-57
2022/11/20 03:15:05;;;;;;;;;;;;;;;;;;5030543;28;19933;-56
2022/11/20 03:17:33;;;;;;;;;;;;;;;;;;5031954;28;20298;-57
2022/11/20 03:19:59;;;;;;;;;;;;;;;;;;5032426;28;19929;-55
2022/11/20 03:22:26;;;;;;;;;;;;;;;;;;5032700;28;19933;-57
2022/11/20 03:24:52;;;;;;;;;;;;;;;;;;5032191;28;19932;-56
2022/11/20 03:27:19;;;;;;;;;;;;;;;;;;5032119;28;19981;-55
2022/11/20 03:29:45;;;;;;;;;;;;;;;;;;5031758;28;19932;-55
2022/11/20 03:32:12;;;;;;;;;;;;;;;;;;5032673;28;20605;-56
2022/11/20 03:34:40;;;;;;;;;;;;;;;;;;5032166;28;19929;-54
2022/11/20 03:37:07;;;;;;;;;;;;;;;;;;5032052;28;19925;-55
2022/11/20 03:39:33;;;;;;;;;;;;;;;;;;5031883;28;19925;-56
2022/11/20 03:42:01;;;;;;;;;;;;;;;;;;5031855;28;19929;-53
2022/11/20 03:44:28;;;;;;;;;;;;;;;;;;5031498;28;20008;-55
2022/11/20 03:46:54;;;;;;;;;;;;;;;;;;5031951;28;19929;-56
2022/11/20 03:49:21;;;;;;;;;;;;;;;;;;5031972;28;19925;-56
2022/11/20 03:51:49;;;;;;;;;;;;;;;;;;5032210;28;19971;-56
2022/11/20 03:54:15;;;;;;;;;;;;;;;;;;5032188;28;19972;-56
2022/11/20 03:56:42;;;;;;;;;;;;;;;;;;5031835;28;19933;-57
2022/11/20 03:59:11;;;;;;;;;;;;;;;;;;5031952;28;20377;-54
2022/11/20 04:01:37;;;;;;;;;;;;;;;;;;5031745;28;19929;-55
2022/11/20 04:04:04;;;;;;;;;;;;;;;;;;5022851;28;20293;-57
2022/11/20 04:06:31;;;;;;;;;;;;;;;;;;5012430;28;19926;-56
2022/11/20 04:08:59;;;;;;;;;;;;;;;;;;5017513;28;19928;-56
2022/11/20 04:11:27;;;;;;;;;;;;;;;;;;5031966;28;20333;-57
2022/11/20 04:13:55;;;;;;;;;;;;;;;;;;5031684;28;20289;-56
2022/11/20 04:16:21;;;;;;;;;;;;;;;;;;5031972;28;19971;-54
2022/11/20 04:18:48;;;;;;;;;;;;;;;;;;5031551;28;19926;-56
2022/11/20 04:21:14;;;;;;;;;;;;;;;;;;5031840;28;19952;-55
2022/11/20 04:23:41;;;;;;;;;;;;;;;;;;5031826;28;19987;-54
2022/11/20 04:26:10;;;;;;;;;;;;;;;;;;5031769;28;20378;-57
2022/11/20 04:28:37;;;;;;;;;;;;;;;;;;5031294;28;19929;-53
2022/11/20 04:31:05;;;;;;;;;;;;;;;;;;5031678;28;19925;-55
2022/11/20 04:33:31;;;;;;;;;;;;;;;;;;5032065;28;19937;-57
2022/11/20 04:36:01;;;;;;;;;;;;;;;;;;5031424;28;19925;-56
2022/11/20 04:38:27;;;;;;;;;;;;;;;;;;5031166;28;19986;-57
2022/11/20 04:40:56;;;;;;;;;;;;;;;;;;5011875;28;19925;-56
2022/11/20 04:43:24;;;;;;;;;;;;;;;;;;5012284;28;19925;-57
2022/11/20 04:45:51;;;;;;;;;;;;;;;;;;5012049;28;19930;-55
2022/11/20 04:48:18;;;;;;;;;;;;;;;;;;5011683;28;19972;-56
2022/11/20 04:50:44;;;;;;;;;;;;;;;;;;5012177;28;19925;-56
2022/11/20 04:53:11;;;;;;;;;;;;;;;;;;5012086;28;19976;-57
2022/11/20 04:55:37;;;;;;;;;;;;;;;;;;5013326;28;20418;-56
2022/11/20 04:58:04;;;;;;;;;;;;;;;;;;5015146;28;19972;-53
2022/11/20 05:00:32;;;;;;;;;;;;;;;;;;5014995;28;19925;-56
2022/11/20 05:02:58;;;;;;;;;;;;;;;;;;5015680;28;19929;-53
2022/11/20 05:05:25;;;;;;;;;;;;;;;;;;5034185;28;19929;-56
2022/11/20 05:07:51;;;;;;;;;;;;;;;;;;5034721;28;19979;-58
2022/11/20 05:10:18;;;;;;;;;;;;;;;;;;5035042;28;20471;-57
2022/11/20 05:12:44;;;;;;;;;;;;;;;;;;5034989;28;19925;-56
2022/11/20 05:15:11;;;;;;;;;;;;;;;;;;5034802;28;19925;-57
2022/11/20 05:17:39;;;;;;;;;;;;;;;;;;5034604;28;19968;-57
2022/11/20 05:20:06;;;;;;;;;;;;;;;;;;5034277;28;20039;-57
2022/11/20 05:22:32;;;;;;;;;;;;;;;;;;5034402;28;19987;-57
2022/11/20 05:24:59;;;;;;;;;;;;;;;;;;5034710;28;20348;-57
2022/11/20 05:27:25;;;;;;;;;;;;;;;;;;5034280;28;19956;-56
2022/11/20 05:29:52;;;;;;;;;;;;;;;;;;5034307;28;19975;-56
2022/11/20 05:32:18;;;;;;;;;;;;;;;;;;5034386;28;19925;-53
2022/11/20 05:34:46;;;;;;;;;;;;;;;;;;5034397;28;19925;-56
2022/11/20 05:37:13;;;;;;;;;;;;;;;;;;5034193;28;20311;-56
2022/11/20 05:39:39;;;;;;;;;;;;;;;;;;5034920;28;19972;-55
2022/11/20 05:44:50;;;;;;;;;;;;;;;;;;5034206;28;19979;-53
2022/11/20 05:47:16;;;;;;;;;;;;;;;;;;5034071;28;19979;-57
2022/11/20 05:49:43;;;;;;;;;;;;;;;;;;5033762;28;19975;-57
2022/11/20 05:52:11;;;;;;;;;;;;;;;;;;5034115;28;19925;-54
2022/11/20 05:54:37;;;;;;;;;;;;;;;;;;5033813;28;19929;-56
2022/11/20 05:57:04;;;;;;;;;;;;;;;;;;5033966;28;20337;-55
2022/11/20 05:59:30;;;;;;;;;;;;;;;;;;5033714;28;19924;-56
2022/11/20 06:01:57;;;;;;;;;;;;;;;;;;5033759;28;19925;-55
2022/11/20 06:04:23;;;;;;;;;;;;;;;;;;5031255;28;19936;-55
2022/11/20 06:06:50;;;;;;;;;;;;;;;;;;5033695;28;19972;-56
2022/11/20 06:09:18;;;;;;;;;;;;;;;;;;5033687;28;20394;-57
2022/11/20 06:11:44;;;;;;;;;;;;;;;;;;5033538;28;20306;-57
2022/11/20 06:14:11;;;;;;;;;;;;;;;;;;5033379;28;19925;-53
2022/11/20 06:16:37;;;;;;;;;;;;;;;;;;5033085;28;19929;-54
2022/11/20 06:19:04;;;;;;;;;;;;;;;;;;5033020;28;20007;-56
2022/11/20 06:21:30;;;;;;;;;;;;;;;;;;5033525;28;20474;-57
2022/11/20 06:23:57;;;;;;;;;;;;;;;;;;5033361;28;19929;-52
2022/11/20 06:26:26;;;;;;;;;;;;;;;;;;5033407;28;19955;-55
2022/11/20 06:28:53;;;;;;;;;;;;;;;;;;5032955;28;20365;-56
2022/11/20 06:31:21;;;;;;;;;;;;;;;;;;5033202;28;19929;-54
2022/11/20 06:33:47;;;;;;;;;;;;;;;;;;5033145;28;19979;-53
2022/11/20 06:36:15;;;;;;;;;;;;;;;;;;5033203;28;19976;-53
2022/11/20 06:38:42;;;;;;;;;;;;;;;;;;5032808;28;20381;-56
2022/11/20 06:41:11;;;;;;;;;;;;;;;;;;5033341;28;20398;-56
2022/11/20 06:43:39;;;;;;;;;;;;;;;;;;5032527;28;19925;-57
2022/11/20 06:46:05;;;;;;;;;;;;;;;;;;5013548;28;20306;-55
2022/11/20 06:48:32;;;;;;;;;;;;;;;;;;5013132;28;20445;-57
2022/11/20 06:50:59;;;;;;;;;;;;;;;;;;5013250;28;20437;-53
2022/11/20 06:53:25;;;;;;;;;;;;;;;;;;5013589;28;20210;-55
2022/11/20 06:55:52;;;;;;;;;;;;;;;;;;5033004;28;19928;-53
2022/11/20 06:58:19;;;;;;;;;;;;;;;;;;5032362;28;19936;-53
2022/11/20 07:00:47;;;;;;;;;;;;;;;;;;5032560;28;19925;-56
2022/11/20 07:03:13;;;;;;;;;;;;;;;;;;5030198;28;19991;-55
2022/11/20 07:05:40;;;;;;;;;;;;;;;;;;5012928;28;19933;-53
2022/11/20 07:08:07;;;;;;;;;;;;;;;;;;5012632;28;20345;-55
2022/11/20 07:10:33;;;;;;;;;;;;;;;;;;5028671;28;19941;-56
2022/11/20 07:13:00;;;;;;;;;;;;;;;;;;5032531;28;19925;-57
2022/11/20 07:15:26;;;;;;;;;;;;;;;;;;5032521;28;19932;-55
2022/11/20 07:17:54;;;;;;;;;;;;;;;;;;5031770;28;19932;-56
2022/11/20 07:20:21;;;;;;;;;;;;;;;;;;5032604;28;19951;-53
2022/11/20 07:22:47;;;;;;;;;;;;;;;;;;5032437;28;19925;-55
2022/11/20 07:25:14;;;;;;;;;;;;;;;;;;5032711;28;19933;-56
2022/11/20 07:27:41;;;;;;;;;;;;;;;;;;5031926;28;19925;-56
2022/11/20 07:30:07;;;;;;;;;;;;;;;;;;5032387;28;19971;-56
2022/11/20 07:32:34;;;;;;;;;;;;;;;;;;5032344;28;19976;-56
2022/11/20 07:35:02;;;;;;;;;;;;;;;;;;5031531;28;19925;-55
2022/11/20 07:37:28;;;;;;;;;;;;;;;;;;5032204;28;19956;-54
2022/11/20 07:39:55;;;;;;;;;;;;;;;;;;5031968;28;19925;-60
2022/11/20 07:42:21;;;;;;;;;;;;;;;;;;5032135;28;19929;-54
2022/11/20 07:44:48;;;;;;;;;;;;;;;;;;5032245;28;19929;-52
2022/11/20 07:47:14;;;;;;;;;;;;;;;;;;5031831;28;19932;-56
2022/11/20 07:49:41;;;;;;;;;;;;;;;;;;5031921;28;19979;-57
2022/11/20 07:52:09;;;;;;;;;;;;;;;;;;5032196;28;20413;-55
2022/11/20 07:54:35;;;;;;;;;;;;;;;;;;5031681;28;19937;-57
2022/11/20 07:57:02;;;;;;;;;;;;;;;;;;5031881;28;19925;-55
2022/11/20 07:59:28;;;;;;;;;;;;;;;;;;5031706;28;19925;-54
2022/11/20 08:01:55;;;;;;;;;;;;;;;;;;5032077;28;20317;-54
2022/11/20 08:04:23;;;;;;;;;;;;;;;;;;5020660;28;19929;-54
2022/11/20 08:06:49;;;;;;;;;;;;;;;;;;5012071;28;19984;-53
2022/11/20 08:09:17;;;;;;;;;;;;;;;;;;5012151;28;19925;-56
2022/11/20 08:14:24;;;;;;;;;;;;;;;;;;5000350;28;19937;-55
2022/11/20 08:16:51;;;;;;;;;;;;;;;;;;5013630;28;19948;-54
2022/11/20 08:19:18;;;;;;;;;;;;;;;;;;5031822;28;20306;-56
2022/11/20 08:21:45;;;;;;;;;;;;;;;;;;5031902;28;19971;-53
2022/11/20 08:24:12;;;;;;;;;;;;;;;;;;5031960;28;20358;-56
2022/11/20 08:26:40;;;;;;;;;;;;;;;;;;5031980;28;19925;-56
2022/11/20 08:29:07;;;;;;;;;;;;;;;;;;5031677;28;19929;-56
2022/11/20 08:31:33;;;;;;;;;;;;;;;;;;5034575;28;19979;-53
2022/11/20 08:34:00;;;;;;;;;;;;;;;;;;5034881;28;20454;-56
2022/11/20 08:36:27;;;;;;;;;;;;;;;;;;5035494;28;20341;-55
2022/11/20 08:38:54;;;;;;;;;;;;;;;;;;5034787;28;19925;-54
2022/11/20 08:41:26;;;;;;;;;;;;;;;;;;5035438;28;19925;-55
2022/11/20 08:43:55;;;;;;;;;;;;;;;;;;5035360;28;19973;-55
2022/11/20 08:46:22;;;;;;;;;;;;;;;;;;5035325;28;20440;-52
2022/11/20 08:48:49;;;;;;;;;;;;;;;;;;5035171;28;20387;-54
2022/11/20 08:51:16;;;;;;;;;;;;;;;;;;5034999;28;19929;-56
2022/11/20 08:53:42;;;;;;;;;;;;;;;;;;5035288;28;19978;-53
2022/11/20 08:56:10;;;;;;;;;;;;;;;;;;5035200;28;19925;-56
2022/11/20 08:58:36;;;;;;;;;;;;;;;;;;5034770;28;19925;-56
2022/11/20 09:01:04;;;;;;;;;;;;;;;;;;5034502;28;20406;-54
2022/11/20 09:03:31;;;;;;;;;;;;;;;;;;5031278;28;19976;-54
2022/11/20 09:05:58;;;;;;;;;;;;;;;;;;5017506;28;19925;-54
2022/11/20 09:08:25;;;;;;;;;;;;;;;;;;5018989;28;19925;-55
2022/11/20 09:10:52;;;;;;;;;;;;;;;;;;5034681;28;19931;-56
2022/11/20 09:13:18;;;;;;;;;;;;;;;;;;5033771;28;19929;-54
2022/11/20 09:15:45;;;;;;;;;;;;;;;;;;5034081;28;19925;-55
2022/11/20 09:18:13;;;;;;;;;;;;;;;;;;5033856;28;19926;-54
2022/11/20 09:20:40;;;;;;;;;;;;;;;;;;5034991;28;19926;-53
2022/11/20 09:23:06;;;;;;;;;;;;;;;;;;5045796;28;20332;-56
2022/11/20 09:25:33;;;;;;;;;;;;;;;;;;5037538;28;20417;-52
2022/11/20 09:27:59;;;;;;;;;;;;;;;;;;5033924;28;19971;-53
2022/11/20 09:30:27;;;;;;;;;;;;;;;;;;5034524;28;20382;-54
2022/11/20 09:32:53;;;;;;;;;;;;;;;;;;5034532;28;20299;-54
2022/11/20 09:35:21;;;;;;;;;;;;;;;;;;5034466;28;19925;-54
2022/11/20 09:37:48;;;;;;;;;;;;;;;;;;5034389;28;19925;-54
2022/11/20 09:40:19;;;;;;;;;;;;;;;;;;5034293;28;19929;-57
2022/11/20 09:42:48;;;;;;;;;;;;;;;;;;5033852;28;19925;-56
2022/11/20 09:45:22;;;;;;;;;;;;;;;;;;5034400;28;19929;-56
2022/11/20 09:48:02;;;;;;;;;;;;;;;;;;5034338;28;20011;-56
2022/11/20 09:50:32;;;;;;;;;;;;;;;;;;5034119;28;19925;-54
2022/11/20 09:53:13;;;;;;;;;;;;;;;;;;5034462;28;19925;-57
2022/11/20 09:55:39;;;;;;;;;;;;;;;;;;5034419;28;19976;-51
2022/11/20 09:58:07;;;;;;;;;;;;;;;;;;5033989;28;19979;-53
2022/11/20 10:00:35;;;;;;;;;;;;;;;;;;5033701;28;19929;-57
2022/11/20 10:03:03;;;;;;;;;;;;;;;;;;5032899;28;20353;-56
2022/11/20 10:05:36;;;;;;;;;;;;;;;;;;5033416;28;20374;-56
2022/11/20 10:08:09;;;;;;;;;;;;;;;;;;5032580;28;19929;-57
2022/11/20 10:10:36;;;;;;;;;;;;;;;;;;5033718;28;19925;-55
2022/11/20 10:13:10;;;;;;;;;;;;;;;;;;5032556;28;19925;-56
2022/11/20 10:15:44;;;;;;;;;;;;;;;;;;5033545;28;19925;-55
2022/11/20 10:18:16;;;;;;;;;;;;;;;;;;5033134;28;19975;-55
2022/11/20 10:20:47;;;;;;;;;;;;;;;;;;5033720;28;19929;-57
2022/11/20 10:23:25;;;;;;;;;;;;;;;;;;5033721;28;20020;-57
2022/11/20 10:25:57;;;;;;;;;;;;;;;;;;5033482;28;19925;-57
2022/11/20 10:28:28;;;;;;;;;;;;;;;;;;5032951;28;19971;-54
2022/11/20 10:30:58;;;;;;;;;;;;;;;;;;5032951;28;19937;-57
2022/11/20 10:33:25;;;;;;;;;;;;;;;;;;5033050;28;19925;-57
2022/11/20 10:35:56;;;;;;;;;;;;;;;;;;5033333;28;19992;-56
2022/11/20 10:38:26;;;;;;;;;;;;;;;;;;5032730;28;19925;-55
2022/11/20 10:40:54;;;;;;;;;;;;;;;;;;5033025;28;20016;-55
2022/11/20 10:43:24;;;;;;;;;;;;;;;;;;5033085;28;19929;-56
2022/11/20 10:45:55;;;;;;;;;;;;;;;;;;5033001;28;19926;-55
2022/11/20 10:48:22;;;;;;;;;;;;;;;;;;5031197;28;19925;-57
2022/11/20 10:51:07;;;;;;;;;;;;;;;;;;5032110;28;19926;-55
2022/11/20 10:53:57;;;;;;;;;;;;;;;;;;5023690;28;19971;-57
2022/11/20 10:56:26;;;;;;;;;;;;;;;;;;5026667;28;20382;-56
2022/11/20 10:59:03;;;;;;;;;;;;;;;;;;5032435;28;20397;-56
2022/11/20 11:01:29;;;;;;;;;;;;;;;;;;5032586;28;19956;-57
2022/11/20 11:03:56;;;;;;;;;;;;;;;;;;5023357;28;19925;-55
2022/11/20 11:06:28;;;;;;;;;;;;;;;;;;5023626;28;19929;-56
2022/11/20 11:08:56;;;;;;;;;;;;;;;;;;5032376;28;19929;-56
2022/11/20 11:11:23;;;;;;;;;;;;;;;;;;5032006;28;19925;-57
2022/11/20 11:13:50;;;;;;;;;;;;;;;;;;5032654;28;19940;-64
2022/11/20 11:16:20;;;;;;;;;;;;;;;;;;5032455;28;19925;-65
2022/11/20 11:18:46;;;;;;;;;;;;;;;;;;5032532;28;19925;-63
2022/11/20 11:21:13;;;;;;;;;;;;;;;;;;5031465;28;19956;-57
2022/11/20 11:23:42;;;;;;;;;;;;;;;;;;5032574;28;19979;-64
2022/11/20 11:26:19;;;;;;;;;;;;;;;;;;5032806;28;19925;-65
2022/11/20 11:28:53;;;;;;;;;;;;;;;;;;5033584;28;19928;-62
2022/11/20 11:31:23;;;;;;;;;;;;;;;;;;5045961;28;19939;-49
2022/11/20 11:33:50;;;;;;;;;;;;;;;;;;5040605;28;19925;-54
2022/11/20 11:36:18;;;;;;;;;;;;;;;;;;5032426;28;19979;-53
2022/11/20 11:38:46;;;;;;;;;;;;;;;;;;5029002;28;20374;-55
2022/11/20 11:41:16;;;;;;;;;;;;;;;;;;5029276;28;19925;-55
2022/11/20 11:46:36;;;;;;;;;;;;;;;;;;5028813;28;20400;-55
2022/11/20 11:49:13;;;;;;;;;;;;;;;;;;5028950;28;19933;-55
2022/11/20 11:51:42;;;;;;;;;;;;;;;;;;5029382;28;20329;-54
2022/11/20 11:54:16;;;;;;;;;;;;;;;;;;5028942;28;19925;-55
2022/11/20 11:56:42;;;;;;;;;;;;;;;;;;5031822;28;19925;-54
2022/11/20 11:59:13;;;;;;;;;;;;;;;;;;5032436;28;20378;-54
2022/11/20 12:01:44;;;;;;;;;;;;;;;;;;5031567;28;19929;-53
2022/11/20 12:04:15;;;;;;;;;;;;;;;;;;5021904;28;19926;-56
2022/11/20 12:06:43;;;;;;;;;;;;;;;;;;5016654;28;19930;-55
2022/11/20 12:09:11;;;;;;;;;;;;;;;;;;5023922;28;19925;-54
2022/11/20 12:11:42;;;;;;;;;;;;;;;;;;5036218;28;19925;-53
2022/11/20 12:14:14;;;;;;;;;;;;;;;;;;5036406;28;20448;-57
2022/11/20 12:16:41;;;;;;;;;;;;;;;;;;5036079;28;19929;-53
2022/11/20 12:19:09;;;;;;;;;;;;;;;;;;5035687;28;20364;-57
2022/11/20 12:21:40;;;;;;;;;;;;;;;;;;5035719;28;19980;-55
2022/11/20 12:24:27;;;;;;;;;;;;;;;;;;5036090;28;20329;-56
2022/11/20 12:26:59;;;;;;;;;;;;;;;;;;5033934;28;19925;-55
2022/11/20 12:29:31;;;;;;;;;;;;;;;;;;5035812;28;20292;-54
2022/11/20 12:32:07;;;;;;;;;;;;;;;;;;5034004;28;19932;-54
2022/11/20 12:34:44;;;;;;;;;;;;;;;;;;5029227;28;19925;-54
2022/11/20 12:37:16;;;;;;;;;;;;;;;;;;5033375;28;19925;-53
2022/11/20 12:39:43;;;;;;;;;;;;;;;;;;5034299;28;19968;-53
2022/11/20 12:45:31;;;;;;;;;;;;;;;;;;5034054;28;20302;-55
2022/11/20 12:48:09;;;;;;;;;;;;;;;;;;5028929;28;20448;-55
2022/11/20 12:50:43;;;;;;;;;;;;;;;;;;5028334;28;19925;-52
2022/11/20 12:53:13;;;;;;;;;;;;;;;;;;5030273;28;19932;-51
2022/11/20 12:55:44;;;;;;;;;;;;;;;;;;5030922;28;19925;-53
2022/11/20 12:58:17;;;;;;;;;;;;;;;;;;5033206;28;19925;-52
2022/11/20 13:00:48;;;;;;;;;;;;;;;;;;5033216;28;19928;-52
2022/11/20 13:03:32;;;;;;;;;;;;;;;;;;5032113;28;19979;-52
2022/11/20 13:06:03;;;;;;;;;;;;;;;;;;5027104;28;19926;-52
2022/11/20 13:08:32;;;;;;;;;;;;;;;;;;5031485;28;20370;-53
2022/11/20 13:11:02;;;;;;;;;;;;;;;;;;5030660;28;19975;-56
2022/11/20 13:13:34;;;;;;;;;;;;;;;;;;5032927;28;19932;-52
2022/11/20 13:16:03;;;;;;;;;;;;;;;;;;5032231;28;19925;-54
2022/11/20 13:18:30;;;;;;;;;;;;;;;;;;5032473;28;19980;-56
2022/11/20 13:20:57;;;;;;;;;;;;;;;;;;5032856;28;19933;-55
2022/11/20 13:23:24;;;;;;;;;;;;;;;;;;5032885;28;19925;-53
2022/11/20 13:25:52;;;;;;;;;;;;;;;;;;5032939;28;19971;-53
2022/11/20 13:28:29;;;;;;;;;;;;;;;;;;5032790;28;19956;-56
2022/11/20 13:30:58;;;;;;;;;;;;;;;;;;5033102;28;20574;-54
2022/11/20 13:33:28;;;;;;;;;;;;;;;;;;5032064;28;19983;-53
2022/11/20 13:35:59;;;;;;;;;;;;;;;;;;5029080;28;19947;-55
2022/11/20 13:38:25;;;;;;;;;;;;;;;;;;5028943;28;19979;-55
2022/11/20 13:40:52;;;;;;;;;;;;;;;;;;5030776;28;19932;-56
2022/11/20 13:43:22;;;;;;;;;;;;;;;;;;5032880;28;19987;-56
2022/11/20 13:45:57;;;;;;;;;;;;;;;;;;5032777;28;19926;-52
2022/11/20 13:48:25;;;;;;;;;;;;;;;;;;5031546;28;19971;-54
2022/11/20 13:50:57;;;;;;;;;;;;;;;;;;5031974;28;19925;-52
2022/11/20 13:53:31;;;;;;;;;;;;;;;;;;5035030;28;19931;-52
2022/11/20 13:56:01;;;;;;;;;;;;;;;;;;5039135;28;19929;-56
2022/11/20 13:58:37;;;;;;;;;;;;;;;;;;5032163;28;19933;-55
2022/11/20 14:01:11;;;;;;;;;;;;;;;;;;5032588;28;19972;-51
2022/11/20 14:03:39;;;;;;;;;;;;;;;;;;5026653;28;19980;-53
2022/11/20 14:06:07;;;;;;;;;;;;;;;;;;5012712;28;19926;-53
2022/11/20 14:08:37;;;;;;;;;;;;;;;;;;5012249;28;19925;-57
2022/11/20 14:11:13;;;;;;;;;;;;;;;;;;5016386;28;19925;-55
2022/11/20 14:13:39;;;;;;;;;;;;;;;;;;5032173;28;19929;-53
2022/11/20 14:16:06;;;;;;;;;;;;;;;;;;5031302;28;19929;-53
2022/11/20 14:18:34;;;;;;;;;;;;;;;;;;5031286;28;19925;-54
2022/11/20 14:21:01;;;;;;;;;;;;;;;;;;5031833;28;19925;-55
2022/11/20 14:23:28;;;;;;;;;;;;;;;;;;5031581;28;19925;-55
2022/11/20 14:25:55;;;;;;;;;;;;;;;;;;5031849;28;20015;-53
2022/11/20 14:28:26;;;;;;;;;;;;;;;;;;5030876;28;19929;-56
2022/11/20 14:30:52;;;;;;;;;;;;;;;;;;5036651;28;19929;-52
2022/11/20 14:33:24;;;;;;;;;;;;;;;;;;5051441;28;19925;-56
2022/11/20 14:35:53;;;;;;;;;;;;;;;;;;5035704;28;20291;-56
2022/11/20 14:38:22;;;;;;;;;;;;;;;;;;5030211;28;19979;-54
2022/11/20 14:40:49;;;;;;;;;;;;;;;;;;5031254;28;19925;-54
2022/11/20 14:43:20;;;;;;;;;;;;;;;;;;5031534;28;19929;-55
2022/11/20 14:45:50;;;;;;;;;;;;;;;;;;5031731;28;20498;-56
2022/11/20 14:48:16;;;;;;;;;;;;;;;;;;5030856;28;19929;-56
2022/11/20 14:50:43;;;;;;;;;;;;;;;;;;5031435;28;19925;-53
2022/11/20 14:53:11;;;;;;;;;;;;;;;;;;5031280;28;19925;-55
2022/11/20 14:55:39;;;;;;;;;;;;;;;;;;5031297;28;20028;-53
2022/11/20 14:58:06;;;;;;;;;;;;;;;;;;5031282;28;19929;-54
2022/11/20 15:00:34;;;;;;;;;;;;;;;;;;5031513;28;19929;-53
2022/11/20 15:03:00;;;;;;;;;;;;;;;;;;5030348;28;20599;-56
2022/11/20 15:05:44;;;;;;;;;;;;;;;;;;5027440;28;20380;-51
2022/11/20 15:08:13;;;;;;;;;;;;;;;;;;5033709;28;19935;-51
2022/11/20 15:10:39;;;;;;;;;;;;;;;;;;5039079;28;19925;-52
2022/11/20 15:13:12;;;;;;;;;;;;;;;;;;5038052;28;20441;-53
2022/11/20 15:15:43;;;;;;;;;;;;;;;;;;5034774;28;20418;-53
2022/11/20 15:18:11;;;;;;;;;;;;;;;;;;5032028;28;19933;-52
2022/11/20 15:20:38;;;;;;;;;;;;;;;;;;5031190;28;20707;-52
2022/11/20 15:23:09;;;;;;;;;;;;;;;;;;5031787;28;19925;-55
2022/11/20 15:25:38;;;;;;;;;;;;;;;;;;5031683;28;19932;-51
2022/11/20 15:28:05;;;;;;;;;;;;;;;;;;5032024;28;19929;-53
2022/11/20 15:30:32;;;;;;;;;;;;;;;;;;5034866;28;19925;-51
2022/11/20 15:32:59;;;;;;;;;;;;;;;;;;5026715;28;19932;-55
2022/11/20 15:35:25;;;;;;;;;;;;;;;;;;5020132;28;20379;-54
2022/11/20 15:37:52;;;;;;;;;;;;;;;;;;5024343;28;19925;-50
2022/11/20 15:40:19;;;;;;;;;;;;;;;;;;5025600;28;19925;-56
2022/11/20 15:45:29;;;;;;;;;;;;;;;;;;5033629;28;19925;-54
2022/11/20 15:47:55;;;;;;;;;;;;;;;;;;5034350;28;20003;-55
2022/11/20 15:50:22;;;;;;;;;;;;;;;;;;5034607;28;19925;-51
2022/11/20 15:52:49;;;;;;;;;;;;;;;;;;5025356;28;19926;-56
2022/11/20 15:55:15;;;;;;;;;;;;;;;;;;5014735;28;19925;-53
2022/11/20 15:57:42;;;;;;;;;;;;;;;;;;5014605;28;19930;-53
2022/11/20 16:00:11;;;;;;;;;;;;;;;;;;5014042;28;19925;-51
2022/11/20 16:02:37;;;;;;;;;;;;;;;;;;5014139;28;19952;-53
2022/11/20 16:05:04;;;;;;;;;;;;;;;;;;5032613;28;19925;-54
2022/11/20 16:07:31;;;;;;;;;;;;;;;;;;5034289;28;19925;-50
2022/11/20 16:09:57;;;;;;;;;;;;;;;;;;5034014;28;19926;-50
2022/11/20 16:17:50;;;;;;;;;;;;;;;;;;5032687;28;19980;-52
2022/11/20 16:20:17;;;;;;;;;;;;;;;;;;5032811;28;19933;-54
2022/11/20 16:22:43;;;;;;;;;;;;;;;;;;5033563;28;19940;-51
2022/11/20 16:25:10;;;;;;;;;;;;;;;;;;5033597;28;19933;-54
2022/11/20 16:27:37;;;;;;;;;;;;;;;;;;5033724;28;20338;-53
2022/11/20 16:30:03;;;;;;;;;;;;;;;;;;5033659;28;19971;-55
2022/11/20 16:32:30;;;;;;;;;;;;;;;;;;5034202;28;19925;-53
2022/11/20 16:34:58;;;;;;;;;;;;;;;;;;5034087;28;20471;-53
2022/11/20 16:37:24;;;;;;;;;;;;;;;;;;5033349;28;20294;-51
2022/11/20 16:39:51;;;;;;;;;;;;;;;;;;5033808;28;20394;-54
2022/11/20 16:42:17;;;;;;;;;;;;;;;;;;5033791;28;19958;-52
2022/11/20 16:44:46;;;;;;;;;;;;;;;;;;5033634;28;19971;-54
2022/11/20 16:47:12;;;;;;;;;;;;;;;;;;5032775;28;19960;-51
2022/11/20 16:49:39;;;;;;;;;;;;;;;;;;5033456;28;19933;-53
2022/11/20 16:52:07;;;;;;;;;;;;;;;;;;5036114;28;19925;-55
2022/11/20 16:54:33;;;;;;;;;;;;;;;;;;5037057;28;19925;-54
2022/11/20 16:57:00;;;;;;;;;;;;;;;;;;5036956;28;20375;-56
2022/11/20 16:59:26;;;;;;;;;;;;;;;;;;5036986;28;19925;-51
2022/11/20 17:01:53;;;;;;;;;;;;;;;;;;5036548;28;19971;-52
2022/11/20 17:04:19;;;;;;;;;;;;;;;;;;5036575;28;19932;-52
2022/11/20 17:06:46;;;;;;;;;;;;;;;;;;5035988;28;19929;-53
2022/11/20 17:09:14;;;;;;;;;;;;;;;;;;5036606;28;19948;-53
2022/11/20 17:11:41;;;;;;;;;;;;;;;;;;5036415;28;20426;-53
2022/11/20 17:14:07;;;;;;;;;;;;;;;;;;5036527;28;20393;-53